Observations à ENGHIEN-REBECQ mars 2004
Date RR Tx Tn Tm T6 PP U DD FF O C/L
1/03/2004 0,0 4,3 -4,3 0,0 -3,8 1031 90 N 0 1 gel
2/03/2004 1,0 8,5 -1,6 3,5 -1,5 1035 86 NO 0 0 gel
3/03/2004 0,0 10,0 -1,6 4,2 -1,5 1033 94 SO 8,6 1 gel
4/03/2004 0,0 8,3 4,6 6,5 5,0 1023 63 SO 0 8 sec
5/03/2004 5,0 6,3 3,1 4,7 5,1 1016 68 NE 6 8 hum
6/03/2004 1,0 6,7 2,3 4,5 2,8 1014 98 SO 0 8 hum
7/03/2004 1,0 7,7 1,7 4,7 3,5 1020 98 SO 5 8 pluie
8/03/2004 0,0 7,9 -1,5 3,2 -0,5 1029 88 N 0 0 sec
9/03/2004 0,0 3,9 0,2 2,1 2,3 1031 60 NE 10 8 hum
10/03/2004 1,0 1,7 -0,5 0,6 0,0 1027 93 NE 5 8 neige
11/03/2004 2,0 5,3 -0,3 2,5 0,5 1021 96 NE 8 8 gel
12/03/2004 4,0 7,3 -0,2 3,6 1,1 1009 73 E 15 8 sec
13/03/2004 0,0 12,4 6,9 9,7 8,1 1008 71 SO 25 8 hum
14/03/2004 0,0 12,8 4,5 8,7 4,7 1021 88 SO 12 1 sec
15/03/2004 0,0 14,5 9,4 12,0 9,7 1026 77 SO 15 5 sec
16/03/2004 0,0 18,6 9,6 14,1 9,8 1031 94 SO 12 2 sec
17/03/2004 0,0 22,0 9,1 15,6 10,1 1026 75 SO 7 0 sec
18/03/2004 0,0 16,9 7,1 12,0 7,2 1024 86 NO 0 8 sec
19/03/2004 3,0 13,0 8,4 10,7 9,7 1008 78 SO 15 8 sec
20/03/2004 2,0 13,1 8,2 10,7 8,7 1010 92 SO 20 8 sec
21/03/2004 0,0 12,4 7,0 9,7 8,2 1002 78 S 15 5 sec
22/03/2004 0,0 12,3 5,8 9,1 6,0 1009 78 NO 8 1 sec
23/03/2004 0,0 8,1 2,1 5,1 2,6 1009 78 E 5 1 sec
24/03/2004 1,0 9,5 1,2 5,4 1,6 1014 75 NE 5 1 GEL
25/03/2004 0,0 8,7 0,6 4,7 0,7 1019 95 SO 0 0 GEL
26/03/2004 0,0 8,3 -1,2 3,6 -0,4 1020 65 NE 0 0 GEL
27/03/2004 0,0 10,0 -1,3 4,4 -0,2 1017 85 N 0 9 GEL
28/03/2004 0,0 12,8 -1,1 5,9 -0,6 1017 80 SO 0 1 GEL
29/03/2004 0,0 14,1 -0,3 6,9 0,9 1020 81 no 0 0 GEL
30/03/2004 0,0 17,6 3,9 10,8 5,0 1018 70 NE 15 0 SEC
31/03/2004   22,4 6,1 14,3 7,7 1009 78 NNE 8 1 SEC
Moyenne/Totaux 21,0 10,9 2,8 6,9 3,6 1019,3 81,6        
RR = précipitations   RR = précipitations    
Tx = Températures maximales   Tx = Températures maximales
Tn = Températures minimales   Tn = Températures minimales
T6 = Températures à 6 heures   T6 = Températures à 6 heures
PP = pression atmosphériques réduites au niveau de la mer  PP = pression atmosphériques réduites au niveau de la mer